Information Last Ob Photographs Calibration Meteogram Network Table Neighbors Monthly Summaries Observation History Wind Roses Custom Wind Roses Data Calendar Satellite Cloud Product Download Terminal Aerodome Forecast

19 April 2024 Observation History, [MCW] MASON CITY, timezone: America/Chicago

Select Date: Time Order:

Show METARs   Show High Frequency MADIS

Previous Day
Time Wind
(mph)
Vis.
(mi.)
Sky Cond.
(100s ft)
Present Wx Temperature (ºF) Relative
Humidity
Pressure Snow
Depth
(in)
Precipitation (in.)
Air Dwpt Feels Like 6 hour altimeter
(in.)
sea level
(mb)
1 hr 3 hr 6 hr
Max.Min.
12:05 AMWNW 810 CLR
% 30.15
KMCW 190505Z AUTO 29007KT 10SM CLR 00/M03 A3015 RMK T00001030 MADISHF
12:10 AMWNW 810 CLR
% 30.15
KMCW 190510Z AUTO 29007KT 10SM CLR 00/M03 A3015 RMK T00001030 MADISHF
12:15 AMW 810 CLR
% 30.15
KMCW 190515Z AUTO 28007KT 10SM CLR 00/M03 A3015 RMK T00001030 MADISHF
12:20 AMW 810 CLR
% 30.15
KMCW 190520Z AUTO 28007KT 10SM CLR 00/M03 A3015 RMK T00001030 MADISHF
12:25 AMW 810 CLR
% 30.15
KMCW 190525Z AUTO 28007KT 10SM CLR 00/M03 A3015 RMK T00001030 MADISHF
12:30 AMW 810 CLR
% 30.16
KMCW 190530Z AUTO 28007KT 10SM CLR 00/M03 A3016 RMK T00001030 MADISHF
12:40 AMW 810 CLR
% 30.16
KMCW 190540Z AUTO 27007KT 10SM CLR 00/M03 A3016 RMK T00001030 MADISHF
12:45 AMW 810 CLR
% 30.16
KMCW 190545Z AUTO 27007KT 10SM CLR 00/M03 A3016 RMK T00001030 MADISHF
12:50 AMW 810 CLR
% 30.16
KMCW 190550Z AUTO 27007KT 10SM CLR 01/M03 A3016 RMK T00101030 MADISHF
12:53 AMW 710 CLR
322626 49 32 78% 30.161021.80
KMCW 190553Z AUTO 27006KT 10SM CLR 00/M03 A3016 RMK AO2 SLP218 T00001033 10094 20000 401220000 51005
12:55 AMW 610 CLR
% 30.16
KMCW 190555Z AUTO 27005KT 10SM CLR 00/M03 A3016 RMK T00001030 MADISHF
1:00 AMW 610 CLR
% 30.16
KMCW 190600Z AUTO 27005KT 10SM CLR 01/M03 A3016 RMK T00101030 MADISHF
1:05 AMW 610 CLR
% 30.16
KMCW 190605Z AUTO 27005KT 10SM CLR 01/M03 A3016 RMK T00101030 MADISHF
1:10 AMW 810 CLR
% 30.16
KMCW 190610Z AUTO 27007KT 10SM CLR 00/M03 A3016 RMK T00001030 MADISHF
1:15 AMW 810 CLR
% 30.16
KMCW 190615Z AUTO 27007KT 10SM CLR M01/M04 A3016 RMK T10101040 MADISHF
1:20 AMW 910 CLR
% 30.16
KMCW 190620Z AUTO 27008KT 10SM CLR M01/M04 A3016 RMK T10101040 MADISHF
1:30 AMW 810 CLR
% 30.16
KMCW 190630Z AUTO 27007KT 10SM CLR M01/M04 A3016 RMK T10101040 MADISHF
1:35 AMW 810 CLR
% 30.15
KMCW 190635Z AUTO 27007KT 10SM CLR 00/M04 A3015 RMK T00001040 MADISHF
1:45 AMW 810 CLR
% 30.15
KMCW 190645Z AUTO 27007KT 10SM CLR M01/M04 A3015 RMK T10101040 MADISHF
1:50 AMW 810 CLR
% 30.16
KMCW 190650Z AUTO 27007KT 10SM CLR 00/M04 A3016 RMK T00001040 MADISHF
1:53 AMW 810 CLR
322525 75% 30.151021.60
KMCW 190653Z AUTO 27007KT 10SM CLR 00/M04 A3015 RMK AO2 SLP216 T00001039
2:00 AMW 610 CLR
% 30.15
KMCW 190700Z AUTO 26005KT 10SM CLR 00/M04 A3015 RMK T00001040 MADISHF
2:05 AMW 610 CLR
% 30.15
KMCW 190705Z AUTO 26005KT 10SM CLR 00/M04 A3015 RMK T00001040 MADISHF
2:10 AMW 810 CLR
% 30.15
KMCW 190710Z AUTO 26007KT 10SM CLR 00/M04 A3015 RMK T00001040 MADISHF
2:15 AMW 810 CLR
% 30.15
KMCW 190715Z AUTO 26007KT 10SM CLR 00/M04 A3015 RMK T00001040 MADISHF
2:25 AMW 810 CLR
% 30.15
KMCW 190725Z AUTO 27007KT 10SM CLR 00/M04 A3015 RMK T00001040 MADISHF
2:30 AMW 810 CLR
% 30.15
KMCW 190730Z AUTO 27007KT 10SM CLR M01/M04 A3015 RMK T10101040 MADISHF
2:35 AMW 810 CLR
% 30.15
KMCW 190735Z AUTO 27007KT 10SM CLR M01/M04 A3015 RMK T10101040 MADISHF
2:40 AMW 810 CLR
% 30.15
KMCW 190740Z AUTO 26007KT 10SM CLR M01/M04 A3015 RMK T10101040 MADISHF
2:50 AMW 810 CLR
% 30.16
KMCW 190750Z AUTO 26007KT 10SM CLR 00/M03 A3016 RMK T00001030 MADISHF
2:53 AMW 810 CLR
322625 78% 30.161021.60
KMCW 190753Z AUTO 26007KT 10SM CLR 00/M03 A3016 RMK AO2 SLP216 T00001033
2:55 AMW 810 CLR
% 30.16
KMCW 190755Z AUTO 27007KT 10SM CLR M01/M03 A3016 RMK T10101030 MADISHF
3:00 AMW 910 CLR
% 30.16
KMCW 190800Z AUTO 27008KT 10SM CLR 00/M03 A3016 RMK T00001030 MADISHF

The IEM API webservice that provided data to this page. For more details, see documentation.

Data Notes

  • For recent years, this page also optionally shows observations from the MADIS High Frequency METAR dataset. This dataset had a problem with temperatures detailed here.